sensor_id;sensor_type;location;lat;lon;timestamp;pressure;altitude;pressure_sealevel;temperature;humidity
44734;BME280;30462;52.446;-1.930;2023-04-21T00:00:18;100511.7305;;;;
44734;BME280;30462;52.446;-1.930;2023-04-21T00:01:18;100510.0313;;;;
44734;BME280;30462;52.446;-1.930;2023-04-21T00:02:18;100511.3555;;;;
44734;BME280;30462;52.446;-1.930;2023-04-21T00:03:18;100510.8555;;;;
44734;BME280;30462;52.446;-1.930;2023-04-21T00:04:18;100510.2383;;;;
44734;BME280;30462;52.446;-1.930;2023-04-21T00:05:18;100508.2305;;;;
44734;BME280;30462;52.446;-1.930;2023-04-21T00:06:18;100508.418;;;;
44734;BME280;30462;52.446;-1.930;2023-04-21T00:07:17;100512.3906;;;;
44734;BME280;30462;52.446;-1.930;2023-04-21T00:08:18;100509.6641;;;;
44734;BME280;30462;52.446;-1.930;2023-04-21T00:09:18;100503.1719;;;;
44734;BME280;30462;52.446;-1.930;2023-04-21T00:10:18;100507.0078;;;;
44734;BME280;30462;52.446;-1.930;2023-04-21T00:11:18;100507.5859;;;;
44734;BME280;30462;52.446;-1.930;2023-04-21T00:12:18;100509.5977;;;;
44734;BME280;30462;52.446;-1.930;2023-04-21T00:13:18;100512.5742;;;;
44734;BME280;30462;52.446;-1.930;2023-04-21T00:14:18;100509.3086;;;;
44734;BME280;30462;52.446;-1.930;2023-04-21T00:15:18;100510.9102;;;;
44734;BME280;30462;52.446;-1.930;2023-04-21T00:16:18;100508.6094;;;;
44734;BME280;30462;52.446;-1.930;2023-04-21T00:17:18;100508.4414;;;;
44734;BME280;30462;52.446;-1.930;2023-04-21T00:18:18;100506.0078;;;;
44734;BME280;30462;52.446;-1.930;2023-04-21T00:19:18;100509.9609;;;;
44734;BME280;30462;52.446;-1.930;2023-04-21T00:20:18;100506.7266;;;;
44734;BME280;30462;52.446;-1.930;2023-04-21T00:21:18;100502.9375;;;;
44734;BME280;30462;52.446;-1.930;2023-04-21T00:22:18;100499.4609;;;;
44734;BME280;30462;52.446;-1.930;2023-04-21T00:23:18;100505.8008;;;;
44734;BME280;30462;52.446;-1.930;2023-04-21T00:24:18;100497.4336;;;;
44734;BME280;30462;52.446;-1.930;2023-04-21T00:25:18;100497.4922;;;;
44734;BME280;30462;52.446;-1.930;2023-04-21T00:26:18;100491.7852;;;;
44734;BME280;30462;52.446;-1.930;2023-04-21T00:27:18;100497.5117;;;;
44734;BME280;30462;52.446;-1.930;2023-04-21T00:28:17;100494.168;;;;
44734;BME280;30462;52.446;-1.930;2023-04-21T00:29:18;100494.3906;;;;
44734;BME280;30462;52.446;-1.930;2023-04-21T00:30:18;100497.8047;;;;
44734;BME280;30462;52.446;-1.930;2023-04-21T00:31:18;100489.8438;;;;
44734;BME280;30462;52.446;-1.930;2023-04-21T00:32:18;100489.2422;;;;
44734;BME280;30462;52.446;-1.930;2023-04-21T00:33:18;100486.8594;;;;
44734;BME280;30462;52.446;-1.930;2023-04-21T00:34:17;100484.1797;;;;
44734;BME280;30462;52.446;-1.930;2023-04-21T00:35:18;100484.3398;;;;
44734;BME280;30462;52.446;-1.930;2023-04-21T00:36:18;100486.9414;;;;
44734;BME280;30462;52.446;-1.930;2023-04-21T00:37:18;100483.3047;;;;
44734;BME280;30462;52.446;-1.930;2023-04-21T00:38:18;100480.5742;;;;
44734;BME280;30462;52.446;-1.930;2023-04-21T00:39:17;100481.7188;;;;
44734;BME280;30462;52.446;-1.930;2023-04-21T00:40:18;100483.6406;;;;
44734;BME280;30462;52.446;-1.930;2023-04-21T00:41:18;100485.332;;;;
44734;BME280;30462;52.446;-1.930;2023-04-21T00:42:18;100483.1602;;;;
44734;BME280;30462;52.446;-1.930;2023-04-21T00:43:18;100477.8555;;;;
44734;BME280;30462;52.446;-1.930;2023-04-21T00:44:18;100478.7344;;;;
44734;BME280;30462;52.446;-1.930;2023-04-21T00:45:17;100484.6055;;;;
44734;BME280;30462;52.446;-1.930;2023-04-21T00:46:17;100481.0859;;;;
44734;BME280;30462;52.446;-1.930;2023-04-21T00:47:18;100478.9453;;;;
44734;BME280;30462;52.446;-1.930;2023-04-21T00:48:18;100484.9375;;;;
44734;BME280;30462;52.446;-1.930;2023-04-21T00:49:18;100482.6406;;;;
44734;BME280;30462;52.446;-1.930;2023-04-21T00:50:18;100477.8477;;;;
44734;BME280;30462;52.446;-1.930;2023-04-21T00:51:18;100478.7148;;;;
44734;BME280;30462;52.446;-1.930;2023-04-21T00:52:18;100483.9766;;;;
44734;BME280;30462;52.446;-1.930;2023-04-21T00:53:18;100482.4023;;;;
44734;BME280;30462;52.446;-1.930;2023-04-21T00:54:18;100472.4219;;;;
44734;BME280;30462;52.446;-1.930;2023-04-21T00:55:18;100479.8555;;;;
44734;BME280;30462;52.446;-1.930;2023-04-21T00:56:18;100474.9883;;;;
44734;BME280;30462;52.446;-1.930;2023-04-21T00:57:18;100479.2266;;;;
44734;BME280;30462;52.446;-1.930;2023-04-21T00:58:18;100479.6836;;;;
44734;BME280;30462;52.446;-1.930;2023-04-21T00:59:18;100480.25;;;;
44734;BME280;30462;52.446;-1.930;2023-04-21T01:00:18;100478.6445;;;;
44734;BME280;30462;52.446;-1.930;2023-04-21T01:01:18;100475.5547;;;;
44734;BME280;30462;52.446;-1.930;2023-04-21T01:02:18;100478.957;;;;
44734;BME280;30462;52.446;-1.930;2023-04-21T01:03:18;100477.9023;;;;
44734;BME280;30462;52.446;-1.930;2023-04-21T01:04:18;100475.207;;;;
44734;BME280;30462;52.446;-1.930;2023-04-21T01:05:18;100477.2695;;;;
44734;BME280;30462;52.446;-1.930;2023-04-21T01:06:18;100477.7852;;;;
44734;BME280;30462;52.446;-1.930;2023-04-21T01:07:18;100470.7656;;;;
44734;BME280;30462;52.446;-1.930;2023-04-21T01:08:18;100476.3555;;;;
44734;BME280;30462;52.446;-1.930;2023-04-21T01:09:18;100473.2773;;;;
44734;BME280;30462;52.446;-1.930;2023-04-21T01:10:18;100472.3945;;;;
44734;BME280;30462;52.446;-1.930;2023-04-21T01:11:18;100473.207;;;;
44734;BME280;30462;52.446;-1.930;2023-04-21T01:12:18;100474.0547;;;;
44734;BME280;30462;52.446;-1.930;2023-04-21T01:13:18;100474.625;;;;
44734;BME280;30462;52.446;-1.930;2023-04-21T01:14:18;100472.418;;;;
44734;BME280;30462;52.446;-1.930;2023-04-21T01:15:18;100473.5469;;;;
44734;BME280;30462;52.446;-1.930;2023-04-21T01:16:18;100463.8125;;;;
44734;BME280;30462;52.446;-1.930;2023-04-21T01:17:18;100464.8672;;;;
44734;BME280;30462;52.446;-1.930;2023-04-21T01:18:18;100464.6875;;;;
44734;BME280;30462;52.446;-1.930;2023-04-21T01:19:18;100467.1602;;;;
44734;BME280;30462;52.446;-1.930;2023-04-21T01:20:18;100470.1992;;;;
44734;BME280;30462;52.446;-1.930;2023-04-21T01:21:18;100472.8281;;;;
44734;BME280;30462;52.446;-1.930;2023-04-21T01:22:18;100466.3828;;;;
44734;BME280;30462;52.446;-1.930;2023-04-21T01:23:18;100467.1563;;;;
44734;BME280;30462;52.446;-1.930;2023-04-21T01:24:18;100469.6133;;;;
44734;BME280;30462;52.446;-1.930;2023-04-21T01:25:18;100469.7617;;;;
44734;BME280;30462;52.446;-1.930;2023-04-21T01:26:18;100468.9648;;;;
44734;BME280;30462;52.446;-1.930;2023-04-21T01:27:18;100467.1797;;;;
44734;BME280;30462;52.446;-1.930;2023-04-21T01:29:18;100462.5469;;;;
44734;BME280;30462;52.446;-1.930;2023-04-21T01:30:18;100465.8945;;;;
44734;BME280;30462;52.446;-1.930;2023-04-21T01:31:18;100464.8633;;;;
44734;BME280;30462;52.446;-1.930;2023-04-21T01:32:19;100463.8945;;;;
44734;BME280;30462;52.446;-1.930;2023-04-21T01:33:18;100462.4688;;;;
44734;BME280;30462;52.446;-1.930;2023-04-21T01:34:18;100468.0195;;;;
44734;BME280;30462;52.446;-1.930;2023-04-21T01:35:18;100455.9297;;;;
44734;BME280;30462;52.446;-1.930;2023-04-21T01:36:18;100462.3867;;;;
44734;BME280;30462;52.446;-1.930;2023-04-21T01:37:19;100457.7891;;;;
44734;BME280;30462;52.446;-1.930;2023-04-21T01:38:18;100453.4023;;;;
44734;BME280;30462;52.446;-1.930;2023-04-21T01:39:18;100456.418;;;;
44734;BME280;30462;52.446;-1.930;2023-04-21T01:40:18;100454.1992;;;;
44734;BME280;30462;52.446;-1.930;2023-04-21T01:41:18;100458.2617;;;;
44734;BME280;30462;52.446;-1.930;2023-04-21T01:42:18;100452.2148;;;;
44734;BME280;30462;52.446;-1.930;2023-04-21T01:43:19;100452.2188;;;;
44734;BME280;30462;52.446;-1.930;2023-04-21T01:44:18;100450.4531;;;;
44734;BME280;30462;52.446;-1.930;2023-04-21T01:45:18;100455.2461;;;;
44734;BME280;30462;52.446;-1.930;2023-04-21T01:46:18;100452.918;;;;
44734;BME280;30462;52.446;-1.930;2023-04-21T01:47:18;100448.7344;;;;
44734;BME280;30462;52.446;-1.930;2023-04-21T01:48:18;100451.8828;;;;
44734;BME280;30462;52.446;-1.930;2023-04-21T01:49:18;100447.5273;;;;
44734;BME280;30462;52.446;-1.930;2023-04-21T01:50:18;100447.8047;;;;
44734;BME280;30462;52.446;-1.930;2023-04-21T01:51:18;100444.4531;;;;
44734;BME280;30462;52.446;-1.930;2023-04-21T01:52:18;100450.2813;;;;
44734;BME280;30462;52.446;-1.930;2023-04-21T01:53:18;100439.7109;;;;
44734;BME280;30462;52.446;-1.930;2023-04-21T01:54:18;100440.8125;;;;
44734;BME280;30462;52.446;-1.930;2023-04-21T01:55:19;100439.8945;;;;
44734;BME280;30462;52.446;-1.930;2023-04-21T01:56:18;100438.4766;;;;
44734;BME280;30462;52.446;-1.930;2023-04-21T01:57:18;100442.3125;;;;
44734;BME280;30462;52.446;-1.930;2023-04-21T01:58:18;100440.5273;;;;
44734;BME280;30462;52.446;-1.930;2023-04-21T01:59:17;100436.9336;;;;
44734;BME280;30462;52.446;-1.930;2023-04-21T02:00:18;100439.3867;;;;
44734;BME280;30462;52.446;-1.930;2023-04-21T02:01:18;100429.7656;;;;
44734;BME280;30462;52.446;-1.930;2023-04-21T02:02:18;100428.0781;;;;
44734;BME280;30462;52.446;-1.930;2023-04-21T02:03:18;100430.6719;;;;
44734;BME280;30462;52.446;-1.930;2023-04-21T02:04:18;100434.4453;;;;
44734;BME280;30462;52.446;-1.930;2023-04-21T02:05:18;100429.1055;;;;
44734;BME280;30462;52.446;-1.930;2023-04-21T02:06:18;100431.707;;;;
44734;BME280;30462;52.446;-1.930;2023-04-21T02:07:18;100426.6641;;;;
44734;BME280;30462;52.446;-1.930;2023-04-21T02:08:18;100426.4727;;;;
44734;BME280;30462;52.446;-1.930;2023-04-21T02:09:18;100427.7969;;;;
44734;BME280;30462;52.446;-1.930;2023-04-21T02:10:18;100431.6914;;;;
44734;BME280;30462;52.446;-1.930;2023-04-21T02:11:18;100428.543;;;;
44734;BME280;30462;52.446;-1.930;2023-04-21T02:12:18;100423.8984;;;;
44734;BME280;30462;52.446;-1.930;2023-04-21T02:13:17;100419.7969;;;;
44734;BME280;30462;52.446;-1.930;2023-04-21T02:14:18;100420.9063;;;;
44734;BME280;30462;52.446;-1.930;2023-04-21T02:15:18;100414.9766;;;;
44734;BME280;30462;52.446;-1.930;2023-04-21T02:16:18;100420.5781;;;;
44734;BME280;30462;52.446;-1.930;2023-04-21T02:17:18;100415.4219;;;;
44734;BME280;30462;52.446;-1.930;2023-04-21T02:18:18;100417.8828;;;;
44734;BME280;30462;52.446;-1.930;2023-04-21T02:19:18;100415.375;;;;
44734;BME280;30462;52.446;-1.930;2023-04-21T02:20:18;100417.2383;;;;
44734;BME280;30462;52.446;-1.930;2023-04-21T02:21:18;100418.7695;;;;
44734;BME280;30462;52.446;-1.930;2023-04-21T02:22:18;100412.8984;;;;
44734;BME280;30462;52.446;-1.930;2023-04-21T02:23:18;100409.4297;;;;
44734;BME280;30462;52.446;-1.930;2023-04-21T02:24:18;100405.7344;;;;
44734;BME280;30462;52.446;-1.930;2023-04-21T02:25:17;100405.3984;;;;
44734;BME280;30462;52.446;-1.930;2023-04-21T02:26:18;100402.6367;;;;
44734;BME280;30462;52.446;-1.930;2023-04-21T02:27:17;100404.875;;;;
44734;BME280;30462;52.446;-1.930;2023-04-21T02:28:18;100409.7109;;;;
44734;BME280;30462;52.446;-1.930;2023-04-21T02:29:18;100408.9141;;;;
44734;BME280;30462;52.446;-1.930;2023-04-21T02:30:18;100410.3125;;;;
44734;BME280;30462;52.446;-1.930;2023-04-21T02:31:17;100408.8242;;;;
44734;BME280;30462;52.446;-1.930;2023-04-21T02:32:18;100412.207;;;;
44734;BME280;30462;52.446;-1.930;2023-04-21T02:33:18;100408.5703;;;;
44734;BME280;30462;52.446;-1.930;2023-04-21T02:34:18;100403.9688;;;;
44734;BME280;30462;52.446;-1.930;2023-04-21T02:35:18;100400.4219;;;;
44734;BME280;30462;52.446;-1.930;2023-04-21T02:36:18;100394.9414;;;;
44734;BME280;30462;52.446;-1.930;2023-04-21T02:37:18;100391.2227;;;;
44734;BME280;30462;52.446;-1.930;2023-04-21T02:38:18;100391.2383;;;;
44734;BME280;30462;52.446;-1.930;2023-04-21T02:39:18;100391.1133;;;;
44734;BME280;30462;52.446;-1.930;2023-04-21T02:40:18;100391.6406;;;;
44734;BME280;30462;52.446;-1.930;2023-04-21T02:41:18;100391.5938;;;;
44734;BME280;30462;52.446;-1.930;2023-04-21T02:42:18;100387.9844;;;;
44734;BME280;30462;52.446;-1.930;2023-04-21T02:43:18;100390.0156;;;;
44734;BME280;30462;52.446;-1.930;2023-04-21T02:44:17;100386.3359;;;;
44734;BME280;30462;52.446;-1.930;2023-04-21T02:45:17;100386.5664;;;;
44734;BME280;30462;52.446;-1.930;2023-04-21T02:46:18;100382.9766;;;;
44734;BME280;30462;52.446;-1.930;2023-04-21T02:47:18;100385.2383;;;;
44734;BME280;30462;52.446;-1.930;2023-04-21T02:48:18;100386.9688;;;;
44734;BME280;30462;52.446;-1.930;2023-04-21T02:49:18;100386.1523;;;;
44734;BME280;30462;52.446;-1.930;2023-04-21T02:50:18;100382.957;;;;
44734;BME280;30462;52.446;-1.930;2023-04-21T02:51:17;100383.7305;;;;
44734;BME280;30462;52.446;-1.930;2023-04-21T02:52:18;100385.5391;;;;
44734;BME280;30462;52.446;-1.930;2023-04-21T02:53:18;100380.5352;;;;
44734;BME280;30462;52.446;-1.930;2023-04-21T02:54:17;100381.4375;;;;
44734;BME280;30462;52.446;-1.930;2023-04-21T02:55:18;100379.9883;;;;
44734;BME280;30462;52.446;-1.930;2023-04-21T02:56:18;100380.6875;;;;
44734;BME280;30462;52.446;-1.930;2023-04-21T02:57:18;100382.6875;;;;
44734;BME280;30462;52.446;-1.930;2023-04-21T02:58:18;100383.1836;;;;
44734;BME280;30462;52.446;-1.930;2023-04-21T02:59:18;100381.7461;;;;
44734;BME280;30462;52.446;-1.930;2023-04-21T03:00:18;100377.5352;;;;
44734;BME280;30462;52.446;-1.930;2023-04-21T03:01:18;100381.1602;;;;
44734;BME280;30462;52.446;-1.930;2023-04-21T03:02:18;100376.7695;;;;
44734;BME280;30462;52.446;-1.930;2023-04-21T03:03:18;100376.3555;;;;
44734;BME280;30462;52.446;-1.930;2023-04-21T03:04:18;100377.0313;;;;
44734;BME280;30462;52.446;-1.930;2023-04-21T03:05:17;100376.4141;;;;
44734;BME280;30462;52.446;-1.930;2023-04-21T03:06:18;100372.4922;;;;
44734;BME280;30462;52.446;-1.930;2023-04-21T03:07:18;100371.1836;;;;
44734;BME280;30462;52.446;-1.930;2023-04-21T03:08:18;100372.0625;;;;
44734;BME280;30462;52.446;-1.930;2023-04-21T03:09:18;100372.0039;;;;
44734;BME280;30462;52.446;-1.930;2023-04-21T03:10:18;100369.3281;;;;
44734;BME280;30462;52.446;-1.930;2023-04-21T03:11:18;100364.043;;;;
44734;BME280;30462;52.446;-1.930;2023-04-21T03:12:18;100360.5;;;;
44734;BME280;30462;52.446;-1.930;2023-04-21T03:13:18;100357.7695;;;;
44734;BME280;30462;52.446;-1.930;2023-04-21T03:14:18;100359.8633;;;;
44734;BME280;30462;52.446;-1.930;2023-04-21T03:15:18;100361.418;;;;
44734;BME280;30462;52.446;-1.930;2023-04-21T03:16:18;100357.5313;;;;
44734;BME280;30462;52.446;-1.930;2023-04-21T03:17:18;100354.2422;;;;
44734;BME280;30462;52.446;-1.930;2023-04-21T03:18:18;100354.0664;;;;
44734;BME280;30462;52.446;-1.930;2023-04-21T03:19:18;100353.9766;;;;
44734;BME280;30462;52.446;-1.930;2023-04-21T03:20:18;100345.8477;;;;
44734;BME280;30462;52.446;-1.930;2023-04-21T03:21:18;100347.4492;;;;
44734;BME280;30462;52.446;-1.930;2023-04-21T03:22:18;100356.1641;;;;
44734;BME280;30462;52.446;-1.930;2023-04-21T03:23:18;100355.5195;;;;
44734;BME280;30462;52.446;-1.930;2023-04-21T03:24:18;100354.4258;;;;
44734;BME280;30462;52.446;-1.930;2023-04-21T03:25:17;100346.4766;;;;
44734;BME280;30462;52.446;-1.930;2023-04-21T03:26:18;100343.2461;;;;
44734;BME280;30462;52.446;-1.930;2023-04-21T03:27:18;100337.8906;;;;
44734;BME280;30462;52.446;-1.930;2023-04-21T03:28:18;100334.8594;;;;
44734;BME280;30462;52.446;-1.930;2023-04-21T03:29:18;100335.5781;;;;
44734;BME280;30462;52.446;-1.930;2023-04-21T03:30:19;100334.7148;;;;
44734;BME280;30462;52.446;-1.930;2023-04-21T03:31:18;100345.8672;;;;
44734;BME280;30462;52.446;-1.930;2023-04-21T03:32:18;100344.3789;;;;
44734;BME280;30462;52.446;-1.930;2023-04-21T03:33:18;100345.2617;;;;
44734;BME280;30462;52.446;-1.930;2023-04-21T03:34:18;100345.9141;;;;
44734;BME280;30462;52.446;-1.930;2023-04-21T03:35:18;100338.0313;;;;
44734;BME280;30462;52.446;-1.930;2023-04-21T03:36:18;100335.6445;;;;
44734;BME280;30462;52.446;-1.930;2023-04-21T03:37:18;100334.332;;;;
44734;BME280;30462;52.446;-1.930;2023-04-21T03:38:18;100337.8008;;;;
44734;BME280;30462;52.446;-1.930;2023-04-21T03:39:18;100339.1719;;;;
44734;BME280;30462;52.446;-1.930;2023-04-21T03:40:18;100338.5039;;;;
44734;BME280;30462;52.446;-1.930;2023-04-21T03:41:18;100336.3359;;;;
44734;BME280;30462;52.446;-1.930;2023-04-21T03:42:18;100335.7852;;;;
44734;BME280;30462;52.446;-1.930;2023-04-21T03:43:18;100332.5742;;;;
44734;BME280;30462;52.446;-1.930;2023-04-21T03:44:18;100332.6172;;;;
44734;BME280;30462;52.446;-1.930;2023-04-21T03:45:18;100333.9766;;;;
44734;BME280;30462;52.446;-1.930;2023-04-21T03:46:18;100334.3086;;;;
44734;BME280;30462;52.446;-1.930;2023-04-21T03:47:18;100333.3633;;;;
44734;BME280;30462;52.446;-1.930;2023-04-21T03:48:18;100332.1367;;;;
44734;BME280;30462;52.446;-1.930;2023-04-21T03:49:18;100329.5195;;;;
44734;BME280;30462;52.446;-1.930;2023-04-21T03:50:17;100327.6797;;;;
44734;BME280;30462;52.446;-1.930;2023-04-21T03:51:18;100329.4219;;;;
44734;BME280;30462;52.446;-1.930;2023-04-21T03:52:18;100326.1016;;;;
44734;BME280;30462;52.446;-1.930;2023-04-21T03:53:18;100323.8438;;;;
44734;BME280;30462;52.446;-1.930;2023-04-21T03:54:18;100319.9922;;;;
44734;BME280;30462;52.446;-1.930;2023-04-21T03:55:18;100322.1133;;;;
44734;BME280;30462;52.446;-1.930;2023-04-21T03:56:18;100319.3125;;;;
44734;BME280;30462;52.446;-1.930;2023-04-21T03:57:18;100314.6875;;;;
44734;BME280;30462;52.446;-1.930;2023-04-21T03:58:18;100314.1211;;;;
44734;BME280;30462;52.446;-1.930;2023-04-21T03:59:18;100304.8594;;;;
44734;BME280;30462;52.446;-1.930;2023-04-21T04:00:18;100302.1953;;;;
44734;BME280;30462;52.446;-1.930;2023-04-21T04:01:18;100301.6992;;;;
44734;BME280;30462;52.446;-1.930;2023-04-21T04:02:18;100299.8633;;;;
44734;BME280;30462;52.446;-1.930;2023-04-21T04:03:18;100293.4961;;;;
44734;BME280;30462;52.446;-1.930;2023-04-21T04:04:18;100291.2383;;;;
44734;BME280;30462;52.446;-1.930;2023-04-21T04:05:18;100280.4141;;;;
44734;BME280;30462;52.446;-1.930;2023-04-21T04:06:18;100277.5117;;;;
44734;BME280;30462;52.446;-1.930;2023-04-21T04:07:18;100276.1953;;;;
44734;BME280;30462;52.446;-1.930;2023-04-21T04:08:18;100272.6914;;;;
44734;BME280;30462;52.446;-1.930;2023-04-21T04:09:18;100269.6953;;;;
44734;BME280;30462;52.446;-1.930;2023-04-21T04:10:18;100267.3594;;;;
44734;BME280;30462;52.446;-1.930;2023-04-21T04:11:18;100265.8945;;;;
44734;BME280;30462;52.446;-1.930;2023-04-21T04:12:18;100259.8398;;;;
44734;BME280;30462;52.446;-1.930;2023-04-21T04:13:17;100260.7422;;;;
44734;BME280;30462;52.446;-1.930;2023-04-21T04:14:18;100262.9492;;;;
44734;BME280;30462;52.446;-1.930;2023-04-21T04:15:18;100259.7695;;;;
44734;BME280;30462;52.446;-1.930;2023-04-21T04:16:18;100256.8828;;;;
44734;BME280;30462;52.446;-1.930;2023-04-21T04:17:17;100253.5508;;;;
44734;BME280;30462;52.446;-1.930;2023-04-21T04:18:18;100254.6289;;;;
44734;BME280;30462;52.446;-1.930;2023-04-21T04:19:18;100251.8203;;;;
44734;BME280;30462;52.446;-1.930;2023-04-21T04:20:18;100246.8242;;;;
44734;BME280;30462;52.446;-1.930;2023-04-21T04:21:18;100247.3008;;;;
44734;BME280;30462;52.446;-1.930;2023-04-21T04:22:17;100242.6484;;;;
44734;BME280;30462;52.446;-1.930;2023-04-21T04:23:18;100236.5313;;;;
44734;BME280;30462;52.446;-1.930;2023-04-21T04:24:18;100235.5664;;;;
44734;BME280;30462;52.446;-1.930;2023-04-21T04:25:18;100228.7813;;;;
44734;BME280;30462;52.446;-1.930;2023-04-21T04:26:18;100225.7148;;;;
44734;BME280;30462;52.446;-1.930;2023-04-21T04:27:18;100224.9922;;;;
44734;BME280;30462;52.446;-1.930;2023-04-21T04:28:18;100221.5313;;;;
44734;BME280;30462;52.446;-1.930;2023-04-21T04:29:18;100215.2031;;;;
44734;BME280;30462;52.446;-1.930;2023-04-21T04:30:18;100211.2695;;;;
44734;BME280;30462;52.446;-1.930;2023-04-21T04:31:18;100209.4063;;;;
44734;BME280;30462;52.446;-1.930;2023-04-21T04:32:18;100208.1133;;;;
44734;BME280;30462;52.446;-1.930;2023-04-21T04:33:18;100206.9492;;;;
44734;BME280;30462;52.446;-1.930;2023-04-21T04:34:18;100205.7773;;;;
44734;BME280;30462;52.446;-1.930;2023-04-21T04:35:18;100208.2578;;;;
44734;BME280;30462;52.446;-1.930;2023-04-21T04:36:18;100204.9766;;;;
44734;BME280;30462;52.446;-1.930;2023-04-21T04:37:17;100208.7305;;;;
44734;BME280;30462;52.446;-1.930;2023-04-21T04:38:18;100214.5859;;;;
44734;BME280;30462;52.446;-1.930;2023-04-21T04:39:18;100211.5195;;;;
44734;BME280;30462;52.446;-1.930;2023-04-21T04:40:18;100210.1328;;;;
44734;BME280;30462;52.446;-1.930;2023-04-21T04:41:18;100203.4609;;;;
44734;BME280;30462;52.446;-1.930;2023-04-21T04:42:18;100201.1563;;;;
44734;BME280;30462;52.446;-1.930;2023-04-21T04:43:18;100197.4609;;;;
44734;BME280;30462;52.446;-1.930;2023-04-21T04:44:18;100194.8672;;;;
44734;BME280;30462;52.446;-1.930;2023-04-21T04:45:17;100194.4453;;;;
44734;BME280;30462;52.446;-1.930;2023-04-21T04:46:18;100200.2891;;;;
44734;BME280;30462;52.446;-1.930;2023-04-21T04:47:18;100199.8789;;;;
44734;BME280;30462;52.446;-1.930;2023-04-21T04:48:18;100200.5117;;;;
44734;BME280;30462;52.446;-1.930;2023-04-21T04:49:18;100202.9922;;;;
44734;BME280;30462;52.446;-1.930;2023-04-21T04:50:18;100205.5234;;;;
44734;BME280;30462;52.446;-1.930;2023-04-21T04:51:17;100200.4883;;;;
44734;BME280;30462;52.446;-1.930;2023-04-21T04:52:18;100196.3086;;;;
44734;BME280;30462;52.446;-1.930;2023-04-21T04:53:18;100198.0391;;;;
44734;BME280;30462;52.446;-1.930;2023-04-21T04:54:18;100192.8789;;;;
44734;BME280;30462;52.446;-1.930;2023-04-21T04:55:18;100189.1016;;;;
44734;BME280;30462;52.446;-1.930;2023-04-21T04:56:18;100188.3008;;;;
44734;BME280;30462;52.446;-1.930;2023-04-21T04:57:17;100178.207;;;;
44734;BME280;30462;52.446;-1.930;2023-04-21T04:58:18;100176.6133;;;;
44734;BME280;30462;52.446;-1.930;2023-04-21T04:59:18;100170.0234;;;;
44734;BME280;30462;52.446;-1.930;2023-04-21T05:00:18;100178.1992;;;;
44734;BME280;30462;52.446;-1.930;2023-04-21T05:01:18;100180.9609;;;;
44734;BME280;30462;52.446;-1.930;2023-04-21T05:02:18;100181.4648;;;;
44734;BME280;30462;52.446;-1.930;2023-04-21T05:03:18;100189.5391;;;;
44734;BME280;30462;52.446;-1.930;2023-04-21T05:04:18;100192.4688;;;;
44734;BME280;30462;52.446;-1.930;2023-04-21T05:05:18;100187.0039;;;;
44734;BME280;30462;52.446;-1.930;2023-04-21T05:06:18;100182.0469;;;;
44734;BME280;30462;52.446;-1.930;2023-04-21T05:07:18;100178.2148;;;;
44734;BME280;30462;52.446;-1.930;2023-04-21T05:08:18;100177.9023;;;;
44734;BME280;30462;52.446;-1.930;2023-04-21T05:09:18;100179.3633;;;;
44734;BME280;30462;52.446;-1.930;2023-04-21T05:10:18;100177.6094;;;;
44734;BME280;30462;52.446;-1.930;2023-04-21T05:11:17;100174.2773;;;;
44734;BME280;30462;52.446;-1.930;2023-04-21T05:12:17;100171.8906;;;;
44734;BME280;30462;52.446;-1.930;2023-04-21T05:13:18;100171.7422;;;;
44734;BME280;30462;52.446;-1.930;2023-04-21T05:14:18;100167.6094;;;;
44734;BME280;30462;52.446;-1.930;2023-04-21T05:15:18;100168.0938;;;;
44734;BME280;30462;52.446;-1.930;2023-04-21T05:16:18;100170.6172;;;;
44734;BME280;30462;52.446;-1.930;2023-04-21T05:17:18;100172.7852;;;;
44734;BME280;30462;52.446;-1.930;2023-04-21T05:18:18;100175.1719;;;;
44734;BME280;30462;52.446;-1.930;2023-04-21T05:19:18;100175.625;;;;
44734;BME280;30462;52.446;-1.930;2023-04-21T05:20:18;100181.5391;;;;
44734;BME280;30462;52.446;-1.930;2023-04-21T05:22:18;100179.5742;;;;
44734;BME280;30462;52.446;-1.930;2023-04-21T05:23:18;100177.2852;;;;
44734;BME280;30462;52.446;-1.930;2023-04-21T05:24:18;100174.168;;;;
44734;BME280;30462;52.446;-1.930;2023-04-21T05:25:17;100172.3555;;;;
44734;BME280;30462;52.446;-1.930;2023-04-21T05:26:18;100175.6758;;;;
44734;BME280;30462;52.446;-1.930;2023-04-21T05:27:18;100177.457;;;;
44734;BME280;30462;52.446;-1.930;2023-04-21T05:28:18;100182.4023;;;;
44734;BME280;30462;52.446;-1.930;2023-04-21T05:29:18;100185.1563;;;;
44734;BME280;30462;52.446;-1.930;2023-04-21T05:30:18;100183.5508;;;;
44734;BME280;30462;52.446;-1.930;2023-04-21T05:31:17;100186.0078;;;;
44734;BME280;30462;52.446;-1.930;2023-04-21T05:32:18;100188.1953;;;;
44734;BME280;30462;52.446;-1.930;2023-04-21T05:33:18;100185.7148;;;;
44734;BME280;30462;52.446;-1.930;2023-04-21T05:34:18;100182.1328;;;;
44734;BME280;30462;52.446;-1.930;2023-04-21T05:35:18;100182.4219;;;;
44734;BME280;30462;52.446;-1.930;2023-04-21T05:36:18;100174.9336;;;;
44734;BME280;30462;52.446;-1.930;2023-04-21T05:37:18;100173.6523;;;;
44734;BME280;30462;52.446;-1.930;2023-04-21T05:38:18;100167.6133;;;;
44734;BME280;30462;52.446;-1.930;2023-04-21T05:39:18;100165.1016;;;;
44734;BME280;30462;52.446;-1.930;2023-04-21T05:40:18;100163.4336;;;;
44734;BME280;30462;52.446;-1.930;2023-04-21T05:41:18;100163.8906;;;;
44734;BME280;30462;52.446;-1.930;2023-04-21T05:42:18;100161.3906;;;;
44734;BME280;30462;52.446;-1.930;2023-04-21T05:43:18;100159.3477;;;;
44734;BME280;30462;52.446;-1.930;2023-04-21T05:44:18;100161.7148;;;;
44734;BME280;30462;52.446;-1.930;2023-04-21T05:45:18;100159.7539;;;;
44734;BME280;30462;52.446;-1.930;2023-04-21T05:46:18;100160.5664;;;;
44734;BME280;30462;52.446;-1.930;2023-04-21T05:47:18;100164.8516;;;;